Time;durP1;ratioP1;P1;durP2;ratioP2;P2;SDS_P1;SDS_P2;PMS_P1;PMS_P2;Temp;Humidity;BMP_temperature;BMP_pressure;BME280_temperature;BME280_humidity;BME280_pressure;Samples;Min_cycle;Max_cycle;Signal;HPM_P1;HPM_P2
2021/12/15 00:00:35;;;;;;;10.85;4.00;;;;;;;10.31;100.00;101953.28;4993052;28;20034;-69
2021/12/15 00:03:01;;;;;;;11.40;3.50;;;;;;;10.31;100.00;101947.91;4987668;28;20037;-70
2021/12/15 00:05:28;;;;;;;6.63;3.88;;;;;;;10.24;100.00;101939.50;4998789;28;20044;-70
2021/12/15 00:07:59;;;;;;;15.25;4.22;;;;;;;10.17;100.00;101947.28;5001357;28;20188;-69
2021/12/15 00:10:26;;;;;;;11.00;3.20;;;;;;;10.21;100.00;101948.22;5000989;28;20041;-69
2021/12/15 00:12:53;;;;;;;9.88;3.33;;;;;;;10.20;100.00;101954.72;4996058;28;20645;-69
2021/12/15 00:15:22;;;;;;;11.10;3.55;;;;;;;10.26;100.00;101941.91;5003425;28;20091;-69
2021/12/15 00:17:50;;;;;;;11.70;3.80;;;;;;;10.25;100.00;101935.72;4999249;28;20042;-69
2021/12/15 00:20:17;;;;;;;16.20;3.88;;;;;;;10.30;100.00;101934.75;4994261;28;20038;-70
2021/12/15 00:22:44;;;;;;;12.57;3.83;;;;;;;10.32;100.00;101929.81;5001625;28;20483;-70
2021/12/15 00:25:11;;;;;;;12.02;4.18;;;;;;;10.26;100.00;101929.19;4992864;28;20061;-69
2021/12/15 00:27:37;;;;;;;12.38;3.75;;;;;;;10.24;100.00;101947.56;4994135;28;20061;-70
2021/12/15 00:30:07;;;;;;;8.32;3.78;;;;;;;10.20;100.00;101945.88;4991512;28;20030;-69
2021/12/15 00:32:33;;;;;;;13.07;4.78;;;;;;;10.28;100.00;101945.81;4984287;28;20033;-69
2021/12/15 00:34:58;;;;;;;14.95;4.55;;;;;;;10.23;100.00;101955.97;4995627;28;20041;-69
2021/12/15 00:37:24;;;;;;;16.48;4.95;;;;;;;10.20;100.00;101945.88;4998558;28;20038;-69
2021/12/15 00:39:50;;;;;;;14.05;4.68;;;;;;;10.30;100.00;101953.59;5006832;28;20065;-70
2021/12/15 00:42:16;;;;;;;8.80;3.75;;;;;;;10.35;100.00;101953.44;4997615;28;20128;-69
2021/12/15 00:44:43;;;;;;;13.82;3.80;;;;;;;10.29;100.00;101952.00;4996247;28;20182;-69
2021/12/15 00:47:09;;;;;;;13.23;4.45;;;;;;;10.29;100.00;101954.69;4992440;28;20436;-69
2021/12/15 00:49:36;;;;;;;15.73;4.10;;;;;;;10.25;100.00;101959.13;5005271;28;20037;-69
2021/12/15 00:52:03;;;;;;;14.82;4.72;;;;;;;10.29;100.00;101958.19;4990040;28;20081;-69
2021/12/15 00:54:29;;;;;;;11.30;3.70;;;;;;;10.27;100.00;101963.09;4992859;28;20040;-69
2021/12/15 00:56:55;;;;;;;17.20;3.75;;;;;;;10.45;100.00;101961.94;4993407;28;20451;-68
2021/12/15 00:59:23;;;;;;;16.05;3.80;;;;;;;10.46;100.00;101958.16;4995457;28;20059;-69
2021/12/15 01:01:52;;;;;;;11.88;3.80;;;;;;;10.46;100.00;101960.84;5003378;28;20041;-69
2021/12/15 01:04:19;;;;;;;8.68;3.38;;;;;;;10.44;100.00;101962.25;4996775;28;20037;-70
2021/12/15 01:06:52;;;;;;;10.68;3.83;;;;;;;10.44;100.00;101968.44;4993256;28;20030;-69
2021/12/15 01:09:32;;;;;;;12.00;3.63;;;;;;;10.42;100.00;101973.34;4992620;28;20568;-70
2021/12/15 01:20:47;;;;;;;15.30;3.80;;;;;;;10.34;100.00;101970.69;4978161;28;20050;-69
2021/12/15 01:23:16;;;;;;;18.00;3.90;;;;;;;10.32;100.00;101970.19;4990105;28;20475;-69
2021/12/15 01:25:53;;;;;;;12.25;3.92;;;;;;;10.27;100.00;101965.78;4990197;28;20153;-69
2021/12/15 01:28:19;;;;;;;12.63;3.80;;;;;;;10.34;100.00;101976.84;5012998;28;20116;-68
2021/12/15 01:30:47;;;;;;;13.02;3.50;;;;;;;10.28;100.00;101978.13;5008207;28;20029;-69
2021/12/15 01:33:14;;;;;;;8.43;3.67;;;;;;;10.28;100.00;101971.97;4996957;28;20084;-69
2021/12/15 01:35:46;;;;;;;13.27;3.33;;;;;;;10.33;100.00;101964.53;4997922;28;20042;-69
2021/12/15 01:38:14;;;;;;;12.52;4.45;;;;;;;10.34;100.00;101971.47;4995051;28;20038;-69
2021/12/15 01:40:43;;;;;;;6.85;2.85;;;;;;;10.34;100.00;101962.59;5002758;28;20442;-69
2021/12/15 01:43:18;;;;;;;12.90;3.78;;;;;;;10.38;100.00;101961.66;4999455;28;20128;-69
2021/12/15 01:48:32;;;;;;;11.32;3.70;;;;;;;10.30;100.00;101957.06;5001185;28;20483;-70
2021/12/15 01:50:58;;;;;;;8.20;2.95;;;;;;;10.34;100.00;101955.31;4992576;28;20077;-70
2021/12/15 01:53:24;;;;;;;11.32;3.10;;;;;;;10.28;100.00;101956.59;4990440;28;20041;-70
2021/12/15 01:55:50;;;;;;;10.80;3.35;;;;;;;10.23;100.00;101959.47;4990959;28;20470;-69
2021/12/15 01:58:17;;;;;;;11.50;3.33;;;;;;;10.30;100.00;101950.91;4988618;28;20117;-68
2021/12/15 02:00:45;;;;;;;10.65;3.78;;;;;;;10.25;100.00;101959.94;5004091;28;20113;-69
2021/12/15 02:03:10;;;;;;;11.43;3.58;;;;;;;10.26;100.00;101944.59;4993485;28;20058;-70
2021/12/15 02:05:36;;;;;;;9.63;3.92;;;;;;;10.24;100.00;101952.19;4992516;28;20470;-69
2021/12/15 02:08:04;;;;;;;11.45;3.55;;;;;;;10.21;100.00;101956.31;5000496;28;20388;-70
2021/12/15 02:10:34;;;;;;;7.45;3.50;;;;;;;10.30;100.00;101954.38;4994405;28;20049;-69
2021/12/15 02:13:03;;;;;;;13.15;3.40;;;;;;;10.24;100.00;101950.28;4996368;28;20044;-69
2021/12/15 02:15:34;;;;;;;11.13;3.90;;;;;;;10.26;100.00;101953.44;5004074;28;20076;-69
2021/12/15 02:18:02;;;;;;;8.32;3.53;;;;;;;10.24;100.00;101949.50;5005877;28;20670;-69
2021/12/15 02:20:36;;;;;;;8.32;2.88;;;;;;;10.22;100.00;101952.50;4991505;28;20133;-69
2021/12/15 02:23:04;;;;;;;11.25;3.10;;;;;;;10.27;100.00;101960.41;4997082;28;20156;-69
2021/12/15 02:25:29;;;;;;;9.32;3.15;;;;;;;10.34;100.00;101959.91;4990355;28;20125;-70
2021/12/15 02:27:56;;;;;;;10.43;2.90;;;;;;;10.36;100.00;101947.72;4996797;28;20132;-69
2021/12/15 02:38:17;;;;;;;7.72;2.92;;;;;;;10.44;100.00;101960.38;5009148;28;20037;-68
2021/12/15 02:40:45;;;;;;;10.63;3.47;;;;;;;10.38;100.00;101974.31;4998580;28;20085;-68
2021/12/15 02:43:11;;;;;;;16.88;4.03;;;;;;;10.38;100.00;101967.03;5000917;28;20026;-69
2021/12/15 02:45:36;;;;;;;11.98;3.72;;;;;;;10.40;100.00;101967.50;4989597;28;20038;-69
2021/12/15 02:48:05;;;;;;;12.73;4.40;;;;;;;10.38;100.00;101961.66;4997360;28;20545;-68
2021/12/15 02:50:36;;;;;;;12.90;3.65;;;;;;;10.36;100.00;101952.31;4998686;28;20034;-68
2021/12/15 02:53:04;;;;;;;10.50;3.60;;;;;;;10.44;100.00;101944.22;4992792;28;20117;-70
2021/12/15 02:55:30;;;;;;;10.65;3.72;;;;;;;10.41;100.00;101950.25;4998707;28;20674;-68
2021/12/15 02:57:56;;;;;;;9.90;3.53;;;;;;;10.44;100.00;101938.03;5000695;28;20033;-69
2021/12/15 03:00:26;;;;;;;13.95;3.88;;;;;;;10.40;100.00;101929.00;4996773;28;20045;-69
2021/12/15 03:06:03;;;;;;;10.18;3.42;;;;;;;10.48;100.00;101941.66;4977391;28;20050;-70
2021/12/15 03:09:15;;;;;;;7.28;3.20;;;;;;;10.53;100.00;101941.50;4999562;28;20042;-70
2021/12/15 03:16:52;;;;;;;11.93;3.85;;;;;;;10.36;100.00;101933.44;5014677;28;20399;-70
2021/12/15 03:19:18;;;;;;;10.15;3.17;;;;;;;10.30;100.00;101938.22;4990423;28;20022;-70
2021/12/15 03:21:44;;;;;;;15.40;3.90;;;;;;;10.35;100.00;101940.75;5008492;28;20526;-69
2021/12/15 03:24:15;;;;;;;12.82;3.95;;;;;;;10.43;100.00;101937.22;4991702;28;20438;-69
2021/12/15 03:26:50;;;;;;;11.30;3.53;;;;;;;10.42;100.00;101941.03;4991703;28;20034;-70
2021/12/15 03:35:04;;;;;;;14.18;4.05;;;;;;;10.65;100.00;101945.09;5004622;28;20041;-69
2021/12/15 03:37:34;;;;;;;12.65;3.88;;;;;;;10.46;100.00;101947.38;5007734;28;20034;-69
2021/12/15 03:40:16;;;;;;;15.98;4.50;;;;;;;10.44;100.00;101960.38;4999656;28;20371;-69
2021/12/15 03:42:48;;;;;;;13.27;4.15;;;;;;;10.46;100.00;101950.06;4994723;28;20034;-69
2021/12/15 03:45:18;;;;;;;13.73;4.00;;;;;;;10.48;100.00;101950.53;4995890;28;20049;-69
2021/12/15 03:47:49;;;;;;;15.40;4.60;;;;;;;10.57;100.00;101947.78;5008809;28;20076;-69
2021/12/15 03:50:18;;;;;;;19.05;4.63;;;;;;;10.62;100.00;101944.94;5006533;28;20088;-70
2021/12/15 03:52:49;;;;;;;16.20;4.35;;;;;;;10.66;100.00;101944.00;4997822;28;20037;-69
2021/12/15 03:55:17;;;;;;;17.60;4.13;;;;;;;10.58;100.00;101944.81;4992100;28;20583;-69
2021/12/15 03:57:43;;;;;;;14.93;4.80;;;;;;;10.50;100.00;101942.13;4994112;28;20030;-69
2021/12/15 04:00:11;;;;;;;12.73;5.00;;;;;;;10.55;100.00;101940.03;5000768;28;20041;-69
2021/12/15 04:02:40;;;;;;;13.57;4.40;;;;;;;10.57;100.00;101948.59;4993421;28;20038;-70
2021/12/15 04:05:12;;;;;;;9.60;3.35;;;;;;;10.53;100.00;101947.66;4990377;28;20038;-70
2021/12/15 04:07:38;;;;;;;16.42;4.78;;;;;;;10.61;100.00;101951.44;5001186;28;20030;-70
2021/12/15 04:10:06;;;;;;;14.88;4.05;;;;;;;10.61;100.00;101960.31;5022623;28;20036;-69
2021/12/15 04:12:32;;;;;;;15.35;4.30;;;;;;;10.62;100.00;101953.81;4996659;28;20146;-70
2021/12/15 04:15:18;;;;;;;23.73;4.40;;;;;;;10.62;100.00;101953.03;5004788;28;20662;-70
2021/12/15 04:17:48;;;;;;;17.40;4.47;;;;;;;10.57;100.00;101951.28;5000978;28;20088;-71
2021/12/15 04:20:17;;;;;;;12.40;4.10;;;;;;;10.57;100.00;101953.97;4996484;28;20037;-70
2021/12/15 04:22:43;;;;;;;9.20;3.00;;;;;;;10.62;100.00;101951.13;5001964;28;20431;-69
2021/12/15 04:25:23;;;;;;;18.70;4.82;;;;;;;10.62;100.00;101961.91;5000884;28;20116;-70
2021/12/15 04:27:51;;;;;;;13.05;3.33;;;;;;;10.58;100.00;101963.66;5005891;28;20599;-70
2021/12/15 04:30:17;;;;;;;19.45;4.40;;;;;;;10.61;100.00;101957.63;4991356;28;20391;-70
2021/12/15 04:32:46;;;;;;;17.98;5.10;;;;;;;10.57;100.00;101962.06;5004001;28;20566;-69
2021/12/15 04:35:13;;;;;;;16.08;4.40;;;;;;;10.49;100.00;101960.19;4990654;28;20037;-70
2021/12/15 04:37:44;;;;;;;12.85;3.83;;;;;;;10.72;100.00;101960.75;4994944;28;20479;-70
2021/12/15 04:40:12;;;;;;;16.65;4.00;;;;;;;10.79;100.00;101963.72;4992260;28;20046;-69
2021/12/15 04:42:38;;;;;;;11.27;3.58;;;;;;;10.74;100.00;101956.59;4989057;28;20064;-69
2021/12/15 04:45:08;;;;;;;20.60;4.85;;;;;;;10.75;100.00;101966.28;4994430;28;20030;-70
2021/12/15 04:47:34;;;;;;;13.35;3.80;;;;;;;10.79;100.00;101955.66;4990725;28;20180;-70
2021/12/15 04:50:00;;;;;;;17.95;4.25;;;;;;;10.73;100.00;101957.72;4997114;28;20113;-69
2021/12/15 04:52:28;;;;;;;11.63;3.90;;;;;;;10.78;100.00;101957.53;5008191;28;20493;-69
2021/12/15 04:54:56;;;;;;;20.58;4.50;;;;;;;10.77;100.00;101969.44;4987395;28;20045;-70
2021/12/15 04:57:22;;;;;;;14.70;3.53;;;;;;;10.79;100.00;101964.53;4991987;28;20438;-69
2021/12/15 04:59:48;;;;;;;16.17;4.25;;;;;;;10.68;100.00;101960.59;5002786;28;20038;-69
2021/12/15 05:02:16;;;;;;;17.42;4.30;;;;;;;10.66;100.00;101957.47;4997251;28;20025;-72
2021/12/15 05:04:42;;;;;;;12.77;4.20;;;;;;;10.72;100.00;101964.22;4981081;28;20030;-71
2021/12/15 05:07:08;;;;;;;10.95;4.15;;;;;;;10.73;100.00;101965.81;4993948;28;20038;-70
2021/12/15 05:09:34;;;;;;;16.17;3.97;;;;;;;10.81;100.00;101961.50;4991991;28;20029;-72
2021/12/15 05:12:01;;;;;;;13.18;4.03;;;;;;;10.69;100.00;101956.81;4992439;28;20487;-69
2021/12/15 05:14:27;;;;;;;17.92;3.97;;;;;;;10.73;100.00;101951.56;4995943;28;20037;-69
2021/12/15 05:16:53;;;;;;;24.60;3.80;;;;;;;10.74;100.00;101959.31;4995533;28;20438;-69
2021/12/15 05:19:19;;;;;;;12.50;3.63;;;;;;;10.76;100.00;101961.69;4999978;28;20029;-70
2021/12/15 05:21:45;;;;;;;13.32;4.22;;;;;;;10.67;100.00;101956.34;5005012;28;20056;-72
2021/12/15 05:24:30;;;;;;;13.35;4.60;;;;;;;10.77;100.00;101964.06;4989443;28;20033;-69
2021/12/15 05:27:05;;;;;;;18.13;4.18;;;;;;;10.77;100.00;101958.69;5015151;28;20091;-69
2021/12/15 05:29:31;;;;;;;12.93;4.07;;;;;;;10.77;100.00;101952.47;4997522;28;20034;-69
2021/12/15 05:31:58;;;;;;;11.75;3.25;;;;;;;10.75;100.00;101954.72;4988762;28;20083;-72
2021/12/15 05:34:25;;;;;;;9.30;4.05;;;;;;;10.70;100.00;101969.13;4997717;28;20029;-69
2021/12/15 05:36:52;;;;;;;16.90;4.00;;;;;;;10.78;100.00;101968.31;4997936;28;20560;-69
2021/12/15 05:39:20;;;;;;;13.40;4.22;;;;;;;10.77;100.00;101960.56;4995793;28;20022;-69
2021/12/15 05:41:46;;;;;;;17.20;3.97;;;;;;;10.71;100.00;101976.13;4991933;28;20095;-69
2021/12/15 05:44:12;;;;;;;16.08;4.05;;;;;;;10.72;100.00;101977.69;4990689;28;20034;-70
2021/12/15 05:46:38;;;;;;;20.38;4.25;;;;;;;10.71;100.00;101976.13;4994005;28;20034;-71
2021/12/15 05:49:04;;;;;;;13.27;5.03;;;;;;;10.72;100.00;101977.69;4991802;28;20045;-69
2021/12/15 05:51:30;;;;;;;15.05;4.03;;;;;;;10.74;100.00;101980.84;4990131;28;20038;-69
2021/12/15 05:53:56;;;;;;;13.38;3.88;;;;;;;10.82;100.00;101976.53;4989518;28;20045;-69
2021/12/15 05:56:22;;;;;;;17.80;4.90;;;;;;;10.79;100.00;101978.00;4995665;28;20475;-69
2021/12/15 05:58:48;;;;;;;20.00;4.25;;;;;;;10.76;100.00;101972.47;4991153;28;20031;-69
2021/12/15 06:01:14;;;;;;;12.60;3.70;;;;;;;10.77;100.00;101979.44;4998543;28;20103;-69
2021/12/15 06:03:41;;;;;;;16.23;4.03;;;;;;;10.77;100.00;101974.84;4999577;28;20042;-70
2021/12/15 06:06:07;;;;;;;16.02;3.83;;;;;;;10.87;100.00;101979.06;4998403;28;20399;-69
2021/12/15 06:08:33;;;;;;;24.17;5.35;;;;;;;10.86;100.00;101977.47;5006509;28;20026;-69
2021/12/15 06:10:59;;;;;;;15.65;4.22;;;;;;;10.90;100.00;101979.22;5009960;28;20501;-69
2021/12/15 06:13:27;;;;;;;13.93;5.05;;;;;;;10.88;100.00;101975.25;5006833;28;20384;-69
2021/12/15 06:15:54;;;;;;;18.85;4.20;;;;;;;10.93;100.00;101980.47;5012597;28;20703;-68
2021/12/15 06:18:24;;;;;;;21.00;4.70;;;;;;;11.04;100.00;101978.19;4993318;28;20038;-70
2021/12/15 06:20:54;;;;;;;19.80;4.47;;;;;;;10.94;100.00;101978.59;5012210;28;20029;-68
2021/12/15 06:23:22;;;;;;;16.85;4.53;;;;;;;11.00;100.00;101986.16;5003996;28;20050;-69
2021/12/15 06:26:00;;;;;;;14.55;4.00;;;;;;;11.02;100.00;101986.63;4993203;28;20457;-70
2021/12/15 06:28:27;;;;;;;19.33;3.80;;;;;;;11.05;100.00;101995.97;4990761;28;20089;-69
2021/12/15 06:30:54;;;;;;;18.20;4.47;;;;;;;11.10;100.00;101993.06;4993127;28;20085;-68
2021/12/15 06:33:25;;;;;;;17.95;4.47;;;;;;;11.03;100.00;101985.50;4996366;28;20033;-71
2021/12/15 06:35:53;;;;;;;22.77;4.57;;;;;;;11.03;100.00;101990.09;5003415;28;20038;-71
2021/12/15 06:38:32;;;;;;;21.38;5.10;;;;;;;11.01;100.00;101995.84;4999963;28;20625;-70
2021/12/15 06:40:57;;;;;;;26.15;5.13;;;;;;;11.02;100.00;101992.00;4995283;28;20048;-69
2021/12/15 06:43:24;;;;;;;21.13;5.45;;;;;;;11.11;100.00;102010.84;4999375;28;20025;-69
2021/12/15 06:59:29;;;;;;;23.98;5.60;;;;;;;10.97;100.00;102004.88;5004477;28;20486;-69
2021/12/15 07:01:55;;;;;;;17.77;4.15;;;;;;;11.05;100.00;102018.34;5008239;28;20101;-70
2021/12/15 07:04:23;;;;;;;28.98;5.80;;;;;;;11.09;100.00;102010.38;4992338;28;20030;-69
2021/12/15 07:06:50;;;;;;;24.98;4.70;;;;;;;11.07;100.00;102010.69;5000429;28;20058;-69
2021/12/15 07:09:17;;;;;;;15.73;5.25;;;;;;;11.14;100.00;102011.00;4996431;28;20522;-69
2021/12/15 07:11:43;;;;;;;28.85;5.95;;;;;;;11.08;100.00;102012.28;4999576;28;20030;-68
2021/12/15 07:14:09;;;;;;;16.13;5.38;;;;;;;11.08;100.00;102020.38;5016999;28;20110;-68
2021/12/15 07:16:39;;;;;;;22.58;5.72;;;;;;;11.14;100.00;102018.28;4994785;28;20172;-69
2021/12/15 07:21:36;;;;;;;19.08;4.47;;;;;;;11.16;100.00;102024.13;5010771;28;20042;-69
2021/12/15 07:24:02;;;;;;;26.42;5.40;;;;;;;11.13;100.00;102033.66;5008854;28;20491;-70
2021/12/15 07:26:30;;;;;;;23.15;6.45;;;;;;;11.20;100.00;102036.66;5008760;28;20141;-70
2021/12/15 07:28:56;;;;;;;21.98;6.00;;;;;;;11.17;100.00;102036.53;5004900;28;20109;-70
2021/12/15 07:31:21;;;;;;;28.75;4.70;;;;;;;11.10;100.00;102038.91;5009369;28;20049;-70
2021/12/15 07:33:47;;;;;;;26.08;5.55;;;;;;;11.16;100.00;102040.31;4991937;28;20117;-70
2021/12/15 07:36:13;;;;;;;19.70;6.32;;;;;;;11.05;100.00;102042.59;4995013;28;20061;-70
2021/12/15 07:38:43;;;;;;;18.33;5.40;;;;;;;11.03;100.00;102046.72;4997010;28;20038;-70
2021/12/15 07:41:22;;;;;;;18.45;5.68;;;;;;;11.16;100.00;102056.50;5004915;28;20041;-71
2021/12/15 07:43:48;;;;;;;17.55;5.50;;;;;;;11.12;100.00;102048.25;4993528;28;20117;-70
2021/12/15 07:46:13;;;;;;;27.50;6.88;;;;;;;11.12;100.00;102050.97;4999877;28;20097;-70
2021/12/15 07:48:40;;;;;;;17.05;4.85;;;;;;;11.27;100.00;102047.72;4994258;28;20038;-70
2021/12/15 07:51:08;;;;;;;23.88;5.43;;;;;;;11.23;100.00;102045.97;5002920;28;20069;-71
2021/12/15 07:53:34;;;;;;;19.58;4.88;;;;;;;11.31;100.00;102050.53;5016692;28;20489;-70
2021/12/15 07:55:59;;;;;;;23.77;5.68;;;;;;;11.26;100.00;102048.84;5012194;28;20026;-69
2021/12/15 07:58:29;;;;;;;22.02;5.68;;;;;;;11.30;100.00;102046.28;5002501;28;20113;-70
2021/12/15 08:00:58;;;;;;;19.17;5.78;;;;;;;11.13;100.00;102051.75;4993409;28;20038;-70
2021/12/15 08:03:28;;;;;;;19.70;5.05;;;;;;;11.15;100.00;102053.00;4992237;28;20029;-69
2021/12/15 08:05:54;;;;;;;20.85;5.90;;;;;;;11.25;100.00;102055.34;4997875;28;21560;-69
2021/12/15 08:08:20;;;;;;;17.20;5.43;;;;;;;11.23;100.00;102062.16;5006715;28;20101;-69
2021/12/15 08:10:48;;;;;;;21.88;6.18;;;;;;;11.30;100.00;102054.38;4994545;28;20203;-69
2021/12/15 08:13:15;;;;;;;26.58;6.18;;;;;;;11.21;100.00;102053.59;4995029;28;20065;-70
2021/12/15 08:15:42;;;;;;;20.17;5.57;;;;;;;11.24;100.00;102055.66;4999815;28;20065;-69
2021/12/15 08:18:08;;;;;;;20.08;5.75;;;;;;;11.15;100.00;102060.31;5004286;28;20065;-69
2021/12/15 08:20:36;;;;;;;24.58;6.65;;;;;;;11.11;100.00;102065.53;4995577;28;20066;-70
2021/12/15 08:23:03;;;;;;;21.42;6.25;;;;;;;11.15;100.00;102066.47;5000141;28;20134;-69
2021/12/15 08:25:30;;;;;;;22.52;5.95;;;;;;;11.25;100.00;102066.13;5004362;28;20117;-70
2021/12/15 08:27:55;;;;;;;21.92;5.75;;;;;;;11.22;100.00;102064.09;5001928;28;21803;-69
2021/12/15 08:30:28;;;;;;;22.27;6.93;;;;;;;11.33;100.00;102067.19;5010030;28;20073;-71
2021/12/15 08:32:59;;;;;;;25.95;5.72;;;;;;;11.32;100.00;102062.94;5010320;28;20053;-70
2021/12/15 08:35:29;;;;;;;20.55;5.15;;;;;;;11.19;100.00;102064.72;4996698;28;20479;-68
2021/12/15 08:37:54;;;;;;;18.63;6.00;;;;;;;11.15;100.00;102058.38;5008886;28;20060;-69
2021/12/15 08:40:22;;;;;;;20.33;5.90;;;;;;;11.21;100.00;102067.09;5010168;28;20041;-70
2021/12/15 08:42:47;;;;;;;21.52;5.97;;;;;;;11.14;100.00;102074.91;4995045;28;20079;-69
2021/12/15 08:45:14;;;;;;;20.50;5.85;;;;;;;11.27;100.00;102073.88;4994331;28;20085;-69
2021/12/15 08:47:40;;;;;;;17.45;5.32;;;;;;;11.26;100.00;102073.13;5002990;28;20036;-69
2021/12/15 08:50:09;;;;;;;16.63;5.40;;;;;;;11.28;100.00;102067.38;4990962;28;20096;-69
2021/12/15 08:52:34;;;;;;;17.10;5.05;;;;;;;11.32;100.00;102069.13;4997972;28;20029;-70
2021/12/15 08:55:00;;;;;;;18.50;5.93;;;;;;;11.35;100.00;102076.56;4996775;28;20053;-69
2021/12/15 08:57:26;;;;;;;19.98;5.45;;;;;;;11.34;100.00;102083.03;4998710;28;20040;-70
2021/12/15 08:59:51;;;;;;;17.55;5.00;;;;;;;11.43;100.00;102085.72;4998480;28;20030;-69
2021/12/15 09:02:17;;;;;;;19.67;5.03;;;;;;;11.48;100.00;102085.53;4999609;28;20034;-70
2021/12/15 09:04:43;;;;;;;17.48;5.38;;;;;;;11.39;100.00;102090.19;5009457;28;20033;-70
2021/12/15 09:07:09;;;;;;;21.42;5.20;;;;;;;11.25;100.00;102087.69;5000438;28;20026;-70
2021/12/15 09:09:35;;;;;;;21.27;5.03;;;;;;;11.24;100.00;102079.94;5001380;28;20034;-71
2021/12/15 09:12:02;;;;;;;21.02;5.15;;;;;;;11.33;100.00;102081.47;5005395;28;20399;-70
2021/12/15 09:14:28;;;;;;;15.15;5.40;;;;;;;11.32;100.00;102076.41;5006852;28;20045;-70
2021/12/15 09:16:56;;;;;;;19.25;5.85;;;;;;;11.29;100.00;102082.44;4991914;28;20422;-69
2021/12/15 09:19:23;;;;;;;20.70;5.70;;;;;;;11.34;100.00;102082.28;4992723;28;20037;-70
2021/12/15 09:21:51;;;;;;;18.33;6.20;;;;;;;11.42;100.00;102089.53;4990671;28;20034;-71
2021/12/15 09:24:20;;;;;;;19.85;5.97;;;;;;;11.42;100.00;102087.63;4993416;28;20054;-70
2021/12/15 09:26:46;;;;;;;18.13;5.43;;;;;;;11.53;100.00;102088.84;5004029;28;20104;-70
2021/12/15 09:29:12;;;;;;;19.63;5.40;;;;;;;11.60;100.00;102089.13;4991792;28;20487;-70
2021/12/15 09:31:39;;;;;;;18.15;5.63;;;;;;;11.56;100.00;102082.78;4990197;28;20068;-70
2021/12/15 09:34:06;;;;;;;24.15;6.13;;;;;;;11.44;100.00;102087.31;4991578;28;20042;-70
2021/12/15 09:36:32;;;;;;;22.20;5.47;;;;;;;11.50;100.00;102081.38;4993472;28;20438;-70
2021/12/15 09:39:11;;;;;;;17.52;5.78;;;;;;;11.61;100.00;102079.91;4990626;28;20034;-70
2021/12/15 09:41:37;;;;;;;20.33;5.47;;;;;;;11.61;100.00;102079.91;4989829;28;20533;-70
2021/12/15 09:44:09;;;;;;;19.15;4.78;;;;;;;11.51;100.00;102074.91;4991298;28;20491;-70
2021/12/15 10:03:06;;;;;;;22.77;5.75;;;;;;;11.51;100.00;102084.88;5005469;28;20041;-70
2021/12/15 10:05:54;;;;;;;17.85;5.05;;;;;;;11.46;100.00;102082.34;4997943;28;20109;-70
2021/12/15 10:11:30;;;;;;;13.32;5.85;;;;;;;11.67;100.00;102099.44;4998265;28;20026;-70
2021/12/15 10:19:40;;;;;;;23.52;6.68;;;;;;;11.63;100.00;102096.56;4990446;28;20125;-70
2021/12/15 10:22:17;;;;;;;23.55;5.78;;;;;;;11.78;100.00;102104.13;4994708;28;20567;-69
2021/12/15 10:24:58;;;;;;;20.83;6.30;;;;;;;11.58;100.00;102095.94;5000129;28;20046;-70
2021/12/15 10:27:35;;;;;;;25.88;6.47;;;;;;;11.54;100.00;102100.41;4995828;28;20041;-70
2021/12/15 10:30:05;;;;;;;20.60;6.13;;;;;;;11.54;100.00;102086.91;4995561;28;20164;-70
2021/12/15 10:32:34;;;;;;;20.80;6.28;;;;;;;11.63;100.00;102087.69;4992129;28;20045;-70
2021/12/15 10:35:09;;;;;;;24.33;6.95;;;;;;;11.68;100.00;102088.31;4993615;28;20041;-70
2021/12/15 10:37:35;;;;;;;21.95;6.57;;;;;;;11.53;100.00;102093.44;5001689;28;20435;-70
2021/12/15 10:40:12;;;;;;;24.20;6.80;;;;;;;11.78;100.00;102089.84;5008934;28;20038;-70
2021/12/15 10:42:37;;;;;;;26.48;6.55;;;;;;;11.78;100.00;102087.16;5000430;28;20026;-70
2021/12/15 10:45:12;;;;;;;26.63;6.68;;;;;;;11.71;100.00;102089.59;4999167;28;20519;-70
2021/12/15 10:47:55;;;;;;;27.33;6.55;;;;;;;11.66;100.00;102090.53;5001815;28;20069;-70
2021/12/15 10:50:22;;;;;;;20.48;6.38;;;;;;;11.62;100.00;102086.09;5008855;28;20073;-70
2021/12/15 10:52:58;;;;;;;20.25;6.75;;;;;;;11.66;100.00;102090.53;5005580;28;20034;-69
2021/12/15 10:55:32;;;;;;;18.17;6.05;;;;;;;11.66;100.00;102081.66;5009278;28;20108;-70
2021/12/15 10:58:00;;;;;;;24.23;6.47;;;;;;;11.75;100.00;102087.78;5006867;28;20030;-70
2021/12/15 11:00:32;;;;;;;16.77;5.75;;;;;;;11.82;100.00;102085.38;5000067;28;20049;-71
2021/12/15 11:03:06;;;;;;;24.83;6.50;;;;;;;11.69;100.00;102081.03;5007878;28;20495;-70
2021/12/15 11:05:32;;;;;;;23.80;7.50;;;;;;;11.68;100.00;102087.50;5006230;28;20170;-71
2021/12/15 11:07:59;;;;;;;18.88;6.43;;;;;;;11.68;100.00;102090.22;5009037;28;20038;-70
2021/12/15 11:10:38;;;;;;;25.65;7.70;;;;;;;11.66;100.00;102081.66;5008731;28;20032;-70
2021/12/15 11:13:12;;;;;;;20.25;6.45;;;;;;;11.66;100.00;102081.66;4997820;28;20054;-70
2021/12/15 11:15:43;;;;;;;19.30;6.78;;;;;;;11.58;100.00;102083.25;4993157;28;20395;-70
2021/12/15 11:18:17;;;;;;;22.95;7.13;;;;;;;11.58;100.00;102079.75;4993030;28;20049;-70
2021/12/15 11:21:01;;;;;;;24.60;7.60;;;;;;;11.61;100.00;102084.53;5005308;28;20039;-71
2021/12/15 11:23:34;;;;;;;17.73;5.55;;;;;;;11.62;100.00;102084.19;4993144;28;20045;-70
2021/12/15 11:26:04;;;;;;;24.83;6.53;;;;;;;11.60;100.00;102088.31;4993646;28;20045;-70
2021/12/15 11:28:42;;;;;;;22.98;7.35;;;;;;;11.69;100.00;102081.03;5006022;28;20030;-70
2021/12/15 11:31:08;;;;;;;22.08;6.95;;;;;;;11.56;100.00;102088.19;5012231;28;20030;-70
2021/12/15 11:33:45;;;;;;;23.58;6.80;;;;;;;11.66;100.00;102076.25;5006504;28;20052;-70
2021/12/15 11:36:18;;;;;;;22.17;7.25;;;;;;;11.65;100.00;102080.06;5002066;28;20088;-70
2021/12/15 11:38:51;;;;;;;19.52;6.88;;;;;;;11.94;100.00;102082.75;4996795;28;20038;-70
2021/12/15 11:41:37;;;;;;;28.58;7.65;;;;;;;11.89;100.00;102091.03;4992491;28;20080;-70
2021/12/15 11:44:06;;;;;;;21.30;7.53;;;;;;;11.93;100.00;102080.38;4996462;28;20030;-71
2021/12/15 11:46:39;;;;;;;24.00;7.10;;;;;;;11.92;100.00;102085.00;4996015;28;20503;-70
2021/12/15 11:49:13;;;;;;;17.77;6.75;;;;;;;11.69;100.00;102083.72;4993436;28;20121;-70
2021/12/15 11:51:45;;;;;;;24.27;6.15;;;;;;;11.91;100.00;102083.41;5010350;28;20034;-70
2021/12/15 11:54:25;;;;;;;23.42;7.72;;;;;;;11.84;100.00;102077.75;5005462;28;20040;-70
2021/12/15 11:57:23;;;;;;;23.42;6.15;;;;;;;11.81;100.00;102072.97;5009806;28;20116;-70
2021/12/15 11:59:52;;;;;;;26.48;6.55;;;;;;;11.93;100.00;102075.75;4964774;28;20273;-70
2021/12/15 12:02:38;;;;;;;24.70;7.93;;;;;;;11.84;100.00;102077.75;5006129;28;20126;-70
2021/12/15 12:05:16;;;;;;;25.55;7.47;;;;;;;11.81;100.00;102078.38;4999727;28;20034;-70
2021/12/15 12:07:47;;;;;;;21.70;6.40;;;;;;;11.82;100.00;102069.19;5010376;28;20050;-70
2021/12/15 12:10:42;;;;;;;26.90;6.95;;;;;;;11.84;100.00;102074.25;4994849;28;20041;-70
2021/12/15 12:13:14;;;;;;;23.90;7.35;;;;;;;11.73;100.00;102076.53;5007820;28;20034;-70
2021/12/15 12:15:41;;;;;;;;;;;;;;;11.67;100.00;102077.84;5003030;28;20038;-70
2021/12/15 12:18:10;;;;;;;25.20;6.15;;;;;;;11.73;100.00;102087.31;5009821;28;20111;-70
2021/12/15 12:20:40;;;;;;;20.27;6.68;;;;;;;11.79;100.00;102086.00;5011189;28;20119;-70
2021/12/15 12:23:11;;;;;;;25.58;6.82;;;;;;;11.94;100.00;102076.56;5006330;28;20038;-70
2021/12/15 12:25:45;;;;;;;24.90;7.07;;;;;;;11.95;100.00;102064.63;5003987;28;20033;-70
2021/12/15 12:28:14;;;;;;;24.13;6.90;;;;;;;11.94;100.00;102071.97;5009904;28;20045;-70
2021/12/15 12:30:46;;;;;;;18.85;6.25;;;;;;;12.02;100.00;102062.97;4992105;28;20036;-70
2021/12/15 12:33:15;;;;;;;22.52;6.78;;;;;;;12.02;100.00;102068.38;4991557;28;20491;-70